createdAt,value
2022-09-12T00:00:43.712Z,7.50
2022-09-12T00:03:10.565Z,8.35
2022-09-12T00:05:44.495Z,8.07
2022-09-12T00:08:11.387Z,7.43
2022-09-12T00:10:39.746Z,7.22
2022-09-12T00:13:07.123Z,7.05
2022-09-12T00:15:38.529Z,7.15
2022-09-12T00:18:05.506Z,8.05
2022-09-12T00:20:32.439Z,7.30
2022-09-12T00:23:03.721Z,7.45
2022-09-12T00:25:31.385Z,6.55
2022-09-12T00:27:58.263Z,7.57
2022-09-12T00:30:25.364Z,6.78
2022-09-12T00:32:54.750Z,6.47
2022-09-12T00:35:24.862Z,6.20
2022-09-12T00:37:52.415Z,6.80
2022-09-12T00:40:19.239Z,6.90
2022-09-12T00:42:48.947Z,6.85
2022-09-12T00:45:22.143Z,6.45
2022-09-12T00:47:49.572Z,7.10
2022-09-12T00:50:20.716Z,7.38
2022-09-12T00:52:51.394Z,6.85
2022-09-12T00:55:22.628Z,7.68
2022-09-12T01:00:21.847Z,6.80
2022-09-12T01:02:55.268Z,7.65
2022-09-12T01:05:23.369Z,8.02
2022-09-12T01:07:50.966Z,8.32
2022-09-12T01:10:21.677Z,7.85
2022-09-12T01:12:49.571Z,8.45
2022-09-12T01:15:16.924Z,8.30
2022-09-12T01:17:43.816Z,7.65
2022-09-12T01:20:29.640Z,7.07
2022-09-12T01:23:08.432Z,6.75
2022-09-12T01:25:55.531Z,7.57
2022-09-12T01:28:31.613Z,8.25
2022-09-12T01:31:18.933Z,7.53
2022-09-12T01:34:07.745Z,6.97
2022-09-12T01:36:53.002Z,7.07
2022-09-12T01:39:22.066Z,6.80
2022-09-12T01:42:02.773Z,7.07
2022-09-12T01:44:35.248Z,7.47
2022-09-12T01:47:11.706Z,7.05
2022-09-12T01:49:46.444Z,6.60
2022-09-12T01:52:35.382Z,6.25
2022-09-12T01:55:11.490Z,6.65
2022-09-12T01:57:42.260Z,7.90
2022-09-12T02:00:10.811Z,6.72
2022-09-12T02:02:43.142Z,7.40
2022-09-12T02:05:19.027Z,7.35
2022-09-12T02:07:49.617Z,7.53
2022-09-12T02:10:18.193Z,7.50
2022-09-12T02:12:48.033Z,7.53
2022-09-12T02:15:18.748Z,7.70
2022-09-12T02:17:49.355Z,7.32
2022-09-12T02:20:44.015Z,8.00
2022-09-12T02:23:09.377Z,7.43
2022-09-12T02:25:40.835Z,6.82
2022-09-12T02:28:11.657Z,6.60
2022-09-12T02:30:49.246Z,7.43
2022-09-12T02:33:16.222Z,7.00
2022-09-12T02:35:46.423Z,7.22
2022-09-12T02:38:22.286Z,7.55
2022-09-12T02:40:49.698Z,7.30
2022-09-12T02:43:19.193Z,7.22
2022-09-12T02:45:51.008Z,6.70
2022-09-12T02:48:29.583Z,6.93
2022-09-12T02:51:01.408Z,6.70
2022-09-12T02:53:29.464Z,6.95
2022-09-12T02:55:56.490Z,6.45
2022-09-12T02:58:26.196Z,7.20
2022-09-12T03:01:05.476Z,6.35
2022-09-12T03:03:46.242Z,6.45
2022-09-12T03:06:34.581Z,6.80
2022-09-12T03:09:35.331Z,6.57
2022-09-12T03:12:15.016Z,6.68
2022-09-12T03:15:03.219Z,6.38
2022-09-12T03:17:34.649Z,6.78
2022-09-12T03:20:26.347Z,6.47
2022-09-12T03:22:58.027Z,6.15
2022-09-12T03:28:19.432Z,7.72
2022-09-12T03:30:54.864Z,6.50
2022-09-12T03:33:23.104Z,7.13
2022-09-12T03:35:57.749Z,8.00
2022-09-12T03:38:24.653Z,7.75
2022-09-12T03:40:57.012Z,6.25
2022-09-12T03:43:26.914Z,6.60
2022-09-12T03:45:56.471Z,6.28
2022-09-12T03:48:26.136Z,7.13
2022-09-12T03:50:58.465Z,7.10
2022-09-12T03:53:25.564Z,6.28
2022-09-12T03:55:52.504Z,7.43
2022-09-12T03:58:19.365Z,6.93
2022-09-12T04:00:49.175Z,6.25
2022-09-12T04:03:19.567Z,7.63
2022-09-12T04:05:53.234Z,6.72
2022-09-12T04:08:20.190Z,7.47
2022-09-12T04:10:47.093Z,6.45
2022-09-12T04:13:14.070Z,6.45
2022-09-12T04:15:40.819Z,7.00
2022-09-12T04:18:07.617Z,6.07
2022-09-12T04:20:34.536Z,5.95
2022-09-12T04:23:02.109Z,5.95
2022-09-12T04:25:29.528Z,6.22
2022-09-12T04:27:58.712Z,5.32
2022-09-12T04:30:25.636Z,6.03
2022-09-12T04:32:52.597Z,5.70
2022-09-12T04:35:19.699Z,6.57
2022-09-12T04:37:46.548Z,6.03
2022-09-12T04:40:13.550Z,5.70
2022-09-12T04:42:40.486Z,5.45
2022-09-12T04:45:07.743Z,6.43
2022-09-12T04:47:34.581Z,6.80
2022-09-12T04:50:01.536Z,7.57
2022-09-12T04:52:28.557Z,8.25
2022-09-12T04:54:55.750Z,7.93
2022-09-12T04:57:23.208Z,9.05
2022-09-12T04:59:50.104Z,8.48
2022-09-12T05:02:19.848Z,9.13
2022-09-12T05:04:47.101Z,9.00
2022-09-12T05:07:16.503Z,8.30
2022-09-12T05:09:45.802Z,8.55
2022-09-12T05:12:14.681Z,7.95
2022-09-12T05:14:42.342Z,8.47
2022-09-12T05:17:11.747Z,8.98
2022-09-12T05:19:41.438Z,8.05
2022-09-12T05:22:10.063Z,8.90
2022-09-12T05:24:39.509Z,8.75
2022-09-12T05:27:06.408Z,8.27
2022-09-12T05:29:34.142Z,9.02
2022-09-12T05:32:01.155Z,9.30
2022-09-12T05:34:27.946Z,8.13
2022-09-12T05:36:54.867Z,7.82
2022-09-12T05:39:22.210Z,8.93
2022-09-12T05:41:48.991Z,7.82
2022-09-12T05:44:15.887Z,8.85
2022-09-12T05:46:45.016Z,7.63
2022-09-12T05:49:13.121Z,8.35
2022-09-12T05:51:41.695Z,7.40
2022-09-12T05:54:12.178Z,7.50
2022-09-12T05:56:43.194Z,7.35
2022-09-12T05:59:13.232Z,8.27
2022-09-12T06:01:40.457Z,7.63
2022-09-12T06:04:07.864Z,7.82
2022-09-12T06:06:39.745Z,7.45
2022-09-12T06:09:06.787Z,8.05
2022-09-12T06:11:34.724Z,7.05
2022-09-12T06:14:02.323Z,7.72
2022-09-12T06:16:30.575Z,6.85
2022-09-12T06:19:25.159Z,6.80
2022-09-12T06:21:55.450Z,7.55
2022-09-12T06:24:22.502Z,7.57
2022-09-12T06:26:54.187Z,6.70
2022-09-12T06:29:25.282Z,8.07
2022-09-12T06:31:52.718Z,6.43
2022-09-12T06:34:20.057Z,6.38
2022-09-12T06:36:48.903Z,6.57
2022-09-12T06:39:20.045Z,6.53
2022-09-12T06:41:48.543Z,6.20
2022-09-12T06:44:20.228Z,6.00
2022-09-12T06:46:47.447Z,6.50
2022-09-12T06:49:17.188Z,6.07
2022-09-12T06:51:44.770Z,5.40
2022-09-12T06:54:15.439Z,5.72
2022-09-12T06:56:42.581Z,5.60
2022-09-12T06:59:10.951Z,5.68
2022-09-12T07:01:38.122Z,5.47
2022-09-12T07:04:05.353Z,4.68
2022-09-12T07:06:36.512Z,5.03
2022-09-12T07:09:04.339Z,4.25
2022-09-12T07:11:32.474Z,5.10
2022-09-12T07:14:00.595Z,4.53
2022-09-12T07:16:28.154Z,5.03
2022-09-12T07:18:56.410Z,4.00
2022-09-12T07:21:23.552Z,4.60
2022-09-12T07:23:55.033Z,4.63
2022-09-12T07:26:21.906Z,4.50
2022-09-12T07:28:53.869Z,4.22
2022-09-12T07:31:25.199Z,5.55
2022-09-12T07:33:54.988Z,4.28
2022-09-12T07:36:34.190Z,4.20
2022-09-12T07:39:01.657Z,4.50
2022-09-12T07:41:29.619Z,3.75
2022-09-12T07:44:00.520Z,4.32
2022-09-12T07:46:27.920Z,3.55
2022-09-12T07:48:56.061Z,3.65
2022-09-12T07:51:23.631Z,3.20
2022-09-12T07:53:51.923Z,3.47
2022-09-12T07:56:27.337Z,3.72
2022-09-12T07:58:56.977Z,3.20
2022-09-12T08:01:27.718Z,3.30
2022-09-12T08:03:55.851Z,3.45
2022-09-12T08:06:26.700Z,3.60
2022-09-12T08:08:57.716Z,3.72
2022-09-12T08:11:28.132Z,3.63
2022-09-12T08:13:57.937Z,3.45
2022-09-12T08:16:29.082Z,3.28
2022-09-12T08:18:55.913Z,3.20
2022-09-12T08:21:24.187Z,3.42
2022-09-12T08:23:54.745Z,3.30
2022-09-12T08:26:24.081Z,3.13
2022-09-12T08:28:51.380Z,3.10
2022-09-12T08:31:22.082Z,2.83
2022-09-12T08:33:49.622Z,2.83
2022-09-12T08:36:25.373Z,3.25
2022-09-12T08:39:00.650Z,2.63
2022-09-12T08:41:30.825Z,3.20
2022-09-12T08:44:06.132Z,2.72
2022-09-12T08:46:36.887Z,2.95
2022-09-12T08:49:04.448Z,2.40
2022-09-12T08:51:34.475Z,2.70
2022-09-12T08:54:08.463Z,2.65
2022-09-12T08:56:37.418Z,2.72
2022-09-12T08:59:04.438Z,3.20
2022-09-12T09:01:32.812Z,2.60
2022-09-12T09:03:59.780Z,3.10
2022-09-12T09:06:32.167Z,2.50
2022-09-12T09:11:52.492Z,2.83
2022-09-12T09:14:49.247Z,2.50
2022-09-12T09:19:52.341Z,2.60
2022-09-12T09:22:29.245Z,2.80
2022-09-12T09:24:59.659Z,2.70
2022-09-12T09:27:41.227Z,2.92
2022-09-12T09:30:13.925Z,3.40
2022-09-12T09:32:41.616Z,2.28
2022-09-12T09:35:16.613Z,2.50
2022-09-12T09:37:47.552Z,2.80
2022-09-12T09:40:30.306Z,2.58
2022-09-12T09:43:06.520Z,2.50
2022-09-12T09:45:33.325Z,2.35
2022-09-12T09:48:05.039Z,2.38
2022-09-12T09:50:32.076Z,2.40
2022-09-12T09:53:00.198Z,2.03
2022-09-12T09:55:30.967Z,2.80
2022-09-12T09:57:57.916Z,2.33
2022-09-12T10:00:32.135Z,2.70
2022-09-12T10:03:03.033Z,2.00
2022-09-12T10:05:33.386Z,1.95
2022-09-12T10:08:00.541Z,2.40
2022-09-12T10:10:27.459Z,2.05
2022-09-12T10:13:07.382Z,2.10
2022-09-12T10:15:35.246Z,2.22
2022-09-12T10:18:03.075Z,2.15
2022-09-12T10:20:44.389Z,2.38
2022-09-12T10:23:17.092Z,1.85
2022-09-12T10:25:46.711Z,1.95
2022-09-12T10:28:21.985Z,2.13
2022-09-12T10:30:52.910Z,2.00
2022-09-12T10:33:23.262Z,2.15
2022-09-12T10:35:51.293Z,2.30
2022-09-12T10:38:27.936Z,2.20
2022-09-12T10:40:56.578Z,2.13
2022-09-12T10:43:27.433Z,2.58
2022-09-12T10:45:58.603Z,2.05
2022-09-12T10:48:28.563Z,2.22
2022-09-12T10:50:59.504Z,2.30
2022-09-12T10:53:34.527Z,3.55
2022-09-12T10:56:07.295Z,2.60
2022-09-12T10:58:53.836Z,2.30
2022-09-12T11:01:36.798Z,2.45
2022-09-12T11:04:21.526Z,1.70
2022-09-12T11:07:06.801Z,1.50
2022-09-12T11:09:39.484Z,1.70
2022-09-12T11:12:13.157Z,1.80
2022-09-12T11:14:46.204Z,1.60
2022-09-12T11:17:26.464Z,1.55
2022-09-12T11:20:02.192Z,1.60
2022-09-12T11:22:42.081Z,1.50
2022-09-12T11:25:13.842Z,1.80
2022-09-12T11:27:55.937Z,1.73
2022-09-12T11:30:22.953Z,1.60
2022-09-12T11:33:17.444Z,1.77
2022-09-12T11:35:51.871Z,1.33
2022-09-12T11:38:49.569Z,1.67
2022-09-12T11:41:23.601Z,1.90
2022-09-12T11:43:54.924Z,1.85
2022-09-12T11:46:31.934Z,2.10
2022-09-12T11:49:07.809Z,2.00
2022-09-12T11:51:55.784Z,1.83
2022-09-12T11:54:45.058Z,1.92
2022-09-12T11:57:19.899Z,1.85
2022-09-12T11:59:52.811Z,1.73
2022-09-12T12:02:43.960Z,2.10
2022-09-12T12:05:23.411Z,1.88
2022-09-12T12:07:58.595Z,1.70
2022-09-12T12:10:42.327Z,1.48
2022-09-12T12:13:14.046Z,1.83
2022-09-12T12:15:46.135Z,1.75
2022-09-12T12:18:20.138Z,1.98
2022-09-12T12:20:47.397Z,2.03
2022-09-12T12:23:27.249Z,2.22
2022-09-12T12:25:58.141Z,1.83
2022-09-12T12:28:47.585Z,1.90
2022-09-12T12:31:14.847Z,1.80
2022-09-12T12:33:44.877Z,1.80
2022-09-12T12:36:33.975Z,1.42
2022-09-12T12:39:20.977Z,1.63
2022-09-12T12:41:47.862Z,1.35
2022-09-12T12:44:33.651Z,1.67
2022-09-12T12:47:23.339Z,1.70
2022-09-12T12:50:13.066Z,1.60
2022-09-12T12:55:17.414Z,1.65
2022-09-12T12:57:54.700Z,1.33
2022-09-12T13:00:27.706Z,1.33
2022-09-12T13:03:09.885Z,1.70
2022-09-12T13:05:45.162Z,1.50
2022-09-12T13:08:28.122Z,1.60
2022-09-12T13:10:59.522Z,1.55
2022-09-12T13:13:41.760Z,1.55
2022-09-12T13:16:17.324Z,1.33
2022-09-12T13:18:53.081Z,1.70
2022-09-12T13:21:23.560Z,1.50
2022-09-12T13:24:05.004Z,1.60
2022-09-12T13:26:43.884Z,1.65
2022-09-12T13:29:15.755Z,1.50
2022-09-12T13:31:47.448Z,1.75
2022-09-12T13:34:22.453Z,1.67
2022-09-12T13:36:56.020Z,2.03
2022-09-12T13:39:32.957Z,2.10
2022-09-12T13:42:08.017Z,1.77
2022-09-12T13:44:48.035Z,1.73
2022-09-12T13:47:17.120Z,1.67
2022-09-12T13:49:54.081Z,1.65
2022-09-12T13:52:23.389Z,1.52
2022-09-12T13:54:52.199Z,1.55
2022-09-12T13:57:45.158Z,1.70
2022-09-12T14:00:22.406Z,1.65
2022-09-12T14:02:50.226Z,1.88
2022-09-12T14:05:22.560Z,2.00
2022-09-12T14:08:01.897Z,1.92
2022-09-12T14:10:34.525Z,1.80
2022-09-12T14:13:03.190Z,1.40
2022-09-12T14:15:35.037Z,1.55
2022-09-12T14:18:05.930Z,1.73
2022-09-12T14:23:35.837Z,1.90
2022-09-12T14:26:05.771Z,2.10
2022-09-12T14:28:34.331Z,1.92
2022-09-12T14:31:06.265Z,1.60
2022-09-12T14:33:56.663Z,1.35
2022-09-12T14:36:27.223Z,1.73
2022-09-12T14:38:57.386Z,1.70
2022-09-12T14:41:44.522Z,1.67
2022-09-12T14:44:16.894Z,1.63
2022-09-12T14:46:44.421Z,1.63
2022-09-12T14:49:20.859Z,1.70
2022-09-12T14:51:54.364Z,1.70
2022-09-12T14:54:30.443Z,1.70
2022-09-12T14:56:58.850Z,1.70
2022-09-12T14:59:35.197Z,1.52
2022-09-12T15:02:17.202Z,1.70
2022-09-12T15:04:49.623Z,1.70
2022-09-12T15:07:37.991Z,1.60
2022-09-12T15:10:10.542Z,1.70
2022-09-12T15:12:40.956Z,1.73
2022-09-12T15:15:20.967Z,1.92
2022-09-12T15:17:51.961Z,1.60
2022-09-12T15:20:18.851Z,1.63
2022-09-12T15:22:45.894Z,1.70
2022-09-12T15:25:15.423Z,1.75
2022-09-12T15:27:42.638Z,2.25
2022-09-12T15:30:10.414Z,2.38
2022-09-12T15:32:37.339Z,2.58
2022-09-12T15:35:04.693Z,2.30
2022-09-12T15:37:35.189Z,2.22
2022-09-12T15:40:05.410Z,1.70
2022-09-12T15:42:34.955Z,2.00
2022-09-12T15:45:02.936Z,2.00
2022-09-12T15:47:29.923Z,1.90
2022-09-12T15:49:59.897Z,2.03
2022-09-12T15:52:27.334Z,2.00
2022-09-12T15:54:56.966Z,2.20
2022-09-12T15:57:24.444Z,2.00
2022-09-12T15:59:52.117Z,2.17
2022-09-12T16:02:18.933Z,2.47
2022-09-12T16:04:48.415Z,2.03
2022-09-12T16:07:15.463Z,2.33
2022-09-12T16:09:45.291Z,2.03
2022-09-12T16:12:12.221Z,2.17
2022-09-12T16:14:46.346Z,2.22
2022-09-12T16:17:13.523Z,3.38
2022-09-12T16:19:43.080Z,2.83
2022-09-12T16:22:10.635Z,2.67
2022-09-12T16:24:40.380Z,2.90
2022-09-12T16:27:07.481Z,2.80
2022-09-12T16:29:34.376Z,2.85
2022-09-12T16:32:01.405Z,1.98
2022-09-12T16:34:28.596Z,2.05
2022-09-12T16:36:55.826Z,2.63
2022-09-12T16:39:25.265Z,3.15
2022-09-12T16:41:52.196Z,2.90
2022-09-12T16:44:27.372Z,3.50
2022-09-12T16:46:56.620Z,3.40
2022-09-12T16:49:26.948Z,3.28
2022-09-12T16:51:56.689Z,3.30
2022-09-12T16:54:32.738Z,2.50
2022-09-12T16:57:03.422Z,2.67
2022-09-12T16:59:30.299Z,2.33
2022-09-12T17:01:57.391Z,2.00
2022-09-12T17:04:24.754Z,2.72
2022-09-12T17:06:54.388Z,2.35
2022-09-12T17:09:22.081Z,2.65
2022-09-12T17:11:50.282Z,2.50
2022-09-12T17:14:28.180Z,2.53
2022-09-12T17:16:54.998Z,2.47
2022-09-12T17:19:32.667Z,1.95
2022-09-12T17:22:09.452Z,2.22
2022-09-12T17:24:39.180Z,1.98
2022-09-12T17:27:09.092Z,2.10
2022-09-12T17:29:37.204Z,2.10
2022-09-12T17:32:04.250Z,1.88
2022-09-12T17:34:31.688Z,2.17
2022-09-12T17:36:58.525Z,1.80
2022-09-12T17:39:29.256Z,1.80
2022-09-12T17:42:00.824Z,1.75
2022-09-12T17:44:29.330Z,2.10
2022-09-12T17:46:59.580Z,1.90
2022-09-12T17:49:31.714Z,1.63
2022-09-12T17:52:01.930Z,2.22
2022-09-12T17:54:31.367Z,2.10
2022-09-12T17:57:03.415Z,2.08
2022-09-12T17:59:30.248Z,2.05
2022-09-12T18:02:20.936Z,2.30
2022-09-12T18:04:51.310Z,1.90
2022-09-12T18:07:19.229Z,2.13
2022-09-12T18:09:47.880Z,1.90
2022-09-12T18:12:15.507Z,1.95
2022-09-12T18:14:45.881Z,2.22
2022-09-12T18:17:19.839Z,1.75
2022-09-12T18:19:53.750Z,2.35
2022-09-12T18:22:22.335Z,2.08
2022-09-12T18:24:49.254Z,2.15
2022-09-12T18:27:19.434Z,2.50
2022-09-12T18:29:58.926Z,2.40
2022-09-12T18:32:36.403Z,2.33
2022-09-12T18:35:08.435Z,2.40
2022-09-12T18:37:35.990Z,2.30
2022-09-12T18:40:03.964Z,2.03
2022-09-12T18:42:33.814Z,2.00
2022-09-12T18:45:09.944Z,1.90
2022-09-12T18:47:39.280Z,1.98
2022-09-12T18:50:11.332Z,1.90
2022-09-12T18:52:38.247Z,1.80
2022-09-12T18:55:09.590Z,1.73
2022-09-12T18:57:36.539Z,1.80
2022-09-12T19:00:12.246Z,1.75
2022-09-12T19:02:39.609Z,1.83
2022-09-12T19:05:09.153Z,1.83
2022-09-12T19:07:38.583Z,2.13
2022-09-12T19:10:05.761Z,2.05
2022-09-12T19:12:32.595Z,2.33
2022-09-12T19:15:03.087Z,2.35
2022-09-12T19:17:33.538Z,2.00
2022-09-12T19:20:03.041Z,2.30
2022-09-12T19:22:33.306Z,1.85
2022-09-12T19:25:05.109Z,2.33
2022-09-12T19:27:32.036Z,2.25
2022-09-12T19:29:59.711Z,2.35
2022-09-12T19:32:29.732Z,2.45
2022-09-12T19:34:56.779Z,2.08
2022-09-12T19:37:23.661Z,2.42
2022-09-12T19:39:50.526Z,2.65
2022-09-12T19:42:17.432Z,2.70
2022-09-12T19:44:48.069Z,2.70
2022-09-12T19:47:24.010Z,2.50
2022-09-12T19:49:54.449Z,2.38
2022-09-12T19:52:24.732Z,2.40
2022-09-12T19:54:53.105Z,2.97
2022-09-12T19:57:20.040Z,2.45
2022-09-12T19:59:50.646Z,3.10
2022-09-12T20:02:17.707Z,2.88
2022-09-12T20:04:44.655Z,2.88
2022-09-12T20:07:11.497Z,3.13
2022-09-12T20:09:41.735Z,3.13
2022-09-12T20:12:11.941Z,3.45
2022-09-12T20:14:41.930Z,3.20
2022-09-12T20:17:08.799Z,3.42
2022-09-12T20:19:35.698Z,3.03
2022-09-12T20:22:06.487Z,2.90
2022-09-12T20:24:36.865Z,3.10
2022-09-12T20:27:04.012Z,2.88
2022-09-12T20:29:30.867Z,3.35
2022-09-12T20:31:58.095Z,3.35
2022-09-12T20:34:25.019Z,3.78
2022-09-12T20:36:51.868Z,3.65
2022-09-12T20:39:20.933Z,3.50
2022-09-12T20:41:47.840Z,3.20
2022-09-12T20:44:18.472Z,3.60
2022-09-12T20:46:47.913Z,3.38
2022-09-12T20:49:14.773Z,3.45
2022-09-12T20:51:44.401Z,3.38
2022-09-12T20:54:11.408Z,4.00
2022-09-12T20:56:38.320Z,3.72
2022-09-12T20:59:05.542Z,3.70
2022-09-12T21:01:33.205Z,3.90
2022-09-12T21:04:01.500Z,3.35
2022-09-12T21:06:28.458Z,3.25
2022-09-12T21:08:59.034Z,3.80
2022-09-12T21:11:26.569Z,3.53
2022-09-12T21:13:53.893Z,3.50
2022-09-12T21:16:21.943Z,3.90
2022-09-12T21:18:58.964Z,3.80
2022-09-12T21:21:37.007Z,3.95
2022-09-12T21:24:04.006Z,3.50
2022-09-12T21:26:30.982Z,4.20
2022-09-12T21:29:01.066Z,4.45
2022-09-12T21:31:28.161Z,4.65
2022-09-12T21:33:56.495Z,4.95
2022-09-12T21:36:28.159Z,5.50
2022-09-12T21:38:57.257Z,5.75
2022-09-12T21:41:24.148Z,5.32
2022-09-12T21:43:54.259Z,5.68
2022-09-12T21:46:21.135Z,5.30
2022-09-12T21:48:48.061Z,5.80
2022-09-12T21:51:14.954Z,5.43
2022-09-12T21:53:41.956Z,5.15
2022-09-12T21:56:09.032Z,5.85
2022-09-12T21:58:44.775Z,5.07
2022-09-12T22:01:12.192Z,5.05
2022-09-12T22:03:51.289Z,4.63
2022-09-12T22:06:22.422Z,5.07
2022-09-12T22:09:14.288Z,4.57
2022-09-12T22:11:45.175Z,5.05
2022-09-12T22:14:16.849Z,4.80
2022-09-12T22:16:47.087Z,5.57
2022-09-12T22:19:18.579Z,4.93
2022-09-12T22:22:10.050Z,5.35
2022-09-12T22:24:37.275Z,4.93
2022-09-12T22:27:05.358Z,5.72
2022-09-12T22:29:34.517Z,5.20
2022-09-12T22:32:04.070Z,6.10
2022-09-12T22:34:31.411Z,5.53
2022-09-12T22:36:58.346Z,5.90
2022-09-12T22:39:25.299Z,6.10
2022-09-12T22:41:52.189Z,6.95
2022-09-12T22:44:19.185Z,6.03
2022-09-12T22:46:46.172Z,5.80
2022-09-12T22:49:13.724Z,6.00
2022-09-12T22:51:48.082Z,6.45
2022-09-12T22:54:15.563Z,5.75
2022-09-12T22:56:42.840Z,5.13
2022-09-12T22:59:09.667Z,5.35
2022-09-12T23:01:36.633Z,5.38
2022-09-12T23:04:05.646Z,4.70
2022-09-12T23:06:32.608Z,5.15
2022-09-12T23:08:59.491Z,4.75
2022-09-12T23:11:28.309Z,4.75
2022-09-12T23:13:55.692Z,4.88
2022-09-12T23:16:28.526Z,5.15
2022-09-12T23:18:55.757Z,4.90
2022-09-12T23:21:22.611Z,4.63
2022-09-12T23:23:49.546Z,5.18
2022-09-12T23:26:20.271Z,5.28
2022-09-12T23:28:49.033Z,4.95
2022-09-12T23:31:19.665Z,4.93
2022-09-12T23:33:47.092Z,5.30
2022-09-12T23:36:17.725Z,4.60
2022-09-12T23:38:49.837Z,5.00
2022-09-12T23:41:23.226Z,5.75
2022-09-12T23:43:55.086Z,4.90
2022-09-12T23:46:25.405Z,5.43
2022-09-12T23:49:00.269Z,4.80
2022-09-12T23:51:27.179Z,5.00
2022-09-12T23:53:54.035Z,5.13
2022-09-12T23:56:22.537Z,4.43
2022-09-12T23:58:53.337Z,5.20
